Time;durP1;ratioP1;P1;durP2;ratioP2;P2;SDS_P1;SDS_P2;PMS_P1;PMS_P2;Temp;Humidity;BMP_temperature;BMP_pressure;BME280_temperature;BME280_humidity;BME280_pressure;Samples;Min_cycle;Max_cycle;Signal;HPM_P1;HPM_P2
2023/06/29 00:01:43;;;;;;;7.40;6.90;;;20.80;99.90;;;;;;4953510;28;20259;-76
2023/06/29 00:04:09;;;;;;;6.33;5.80;;;20.80;99.90;;;;;;4953596;28;20662;-76
2023/06/29 00:06:36;;;;;;;6.50;6.10;;;20.80;99.90;;;;;;4950461;28;20448;-76
2023/06/29 00:09:05;;;;;;;6.33;6.03;;;20.90;99.90;;;;;;4955219;28;20183;-76
2023/06/29 00:11:31;;;;;;;7.30;6.77;;;20.90;99.90;;;;;;4945926;28;20841;-74
2023/06/29 00:13:57;;;;;;;7.30;6.80;;;21.10;99.90;;;;;;4955133;28;20469;-76
2023/06/29 00:16:23;;;;;;;6.87;6.57;;;21.10;99.90;;;;;;4951405;28;20188;-76
2023/06/29 00:18:49;;;;;;;6.47;5.87;;;21.00;99.90;;;;;;4952510;28;20943;-76
2023/06/29 00:21:16;;;;;;;7.00;6.40;;;21.00;99.90;;;;;;4949340;28;20693;-76
2023/06/29 00:23:42;;;;;;;7.10;6.60;;;21.00;99.90;;;;;;4943388;28;20450;-77
2023/06/29 00:26:07;;;;;;;6.80;6.30;;;20.90;99.90;;;;;;4938056;28;20489;-76
2023/06/29 00:28:33;;;;;;;7.07;6.57;;;20.90;99.90;;;;;;4943831;29;20190;-76
2023/06/29 00:30:58;;;;;;;8.80;7.87;;;20.80;99.90;;;;;;4964163;28;20217;-76
2023/06/29 00:33:24;;;;;;;7.60;6.97;;;20.80;99.90;;;;;;4981677;28;20224;-75
2023/06/29 00:35:50;;;;;;;7.80;7.20;;;20.70;99.90;;;;;;4974494;28;20197;-76
2023/06/29 00:38:15;;;;;;;6.80;6.30;;;20.70;99.90;;;;;;4976448;28;20200;-75
2023/06/29 00:40:41;;;;;;;7.90;7.40;;;20.70;99.90;;;;;;4972618;28;20189;-75
2023/06/29 00:43:06;;;;;;;7.67;7.10;;;20.80;99.90;;;;;;4976922;28;20244;-76
2023/06/29 00:45:33;;;;;;;6.43;5.93;;;20.70;99.90;;;;;;4976377;28;20211;-77
2023/06/29 00:47:59;;;;;;;7.97;7.40;;;20.70;99.90;;;;;;4976107;28;20936;-76
2023/06/29 00:50:25;;;;;;;7.40;6.80;;;20.60;99.90;;;;;;4974162;28;20707;-77
2023/06/29 00:52:51;;;;;;;6.90;6.30;;;20.60;99.90;;;;;;4981442;28;20216;-77
2023/06/29 00:55:16;;;;;;;7.63;6.90;;;20.60;99.90;;;;;;4974937;28;20755;-77
2023/06/29 00:57:42;;;;;;;7.40;6.80;;;20.60;99.90;;;;;;4980543;28;20192;-77
2023/06/29 01:00:10;;;;;;;7.77;7.00;;;20.50;99.90;;;;;;4974537;28;20459;-76
2023/06/29 01:02:40;;;;;;;10.43;6.90;;;20.40;99.90;;;;;;4971275;28;20277;-77
2023/06/29 01:05:12;;;;;;;8.00;7.07;;;20.50;99.90;;;;;;4977437;28;20441;-76
2023/06/29 01:08:13;;;;;;;7.33;6.83;;;20.40;99.90;;;;;;4977849;28;20444;-76
2023/06/29 01:10:40;;;;;;;7.77;7.10;;;20.40;99.90;;;;;;4976232;28;20908;-77
2023/06/29 01:13:07;;;;;;;6.33;5.83;;;20.40;99.90;;;;;;4975931;28;20492;-76
2023/06/29 01:15:36;;;;;;;7.83;7.03;;;20.40;99.90;;;;;;4977356;28;20533;-77
2023/06/29 01:18:03;;;;;;;6.90;6.40;;;20.40;99.90;;;;;;4974367;28;20433;-76
2023/06/29 01:20:31;;;;;;;8.83;7.07;;;20.40;99.90;;;;;;4977006;28;20506;-77
2023/06/29 01:23:03;;;;;;;7.60;7.00;;;20.40;99.90;;;;;;4980290;28;20470;-77
2023/06/29 01:25:29;;;;;;;9.20;6.53;;;20.30;99.90;;;;;;4979868;28;21010;-76
2023/06/29 01:27:55;;;;;;;7.27;6.67;;;20.30;99.90;;;;;;4972098;28;20435;-76
2023/06/29 01:30:23;;;;;;;7.27;6.67;;;20.30;99.90;;;;;;4978896;28;20479;-77
2023/06/29 01:32:49;;;;;;;6.20;5.70;;;20.40;99.90;;;;;;4960104;28;20218;-76
2023/06/29 01:35:15;;;;;;;7.30;6.60;;;20.30;99.90;;;;;;4974669;28;20437;-77
2023/06/29 01:37:52;;;;;;;8.20;7.50;;;20.30;99.90;;;;;;4980305;28;20247;-75
2023/06/29 01:40:21;;;;;;;7.63;7.00;;;20.20;99.90;;;;;;4978127;28;20440;-76
2023/06/29 01:42:49;;;;;;;7.00;6.60;;;20.30;99.90;;;;;;4980484;28;20483;-75
2023/06/29 01:45:17;;;;;;;10.17;7.43;;;20.30;99.90;;;;;;4975423;28;20517;-77
2023/06/29 01:47:42;;;;;;;7.67;6.90;;;20.30;99.90;;;;;;4977785;28;20432;-77
2023/06/29 01:50:09;;;;;;;7.07;6.43;;;20.40;99.90;;;;;;4976670;28;20440;-75
2023/06/29 01:52:35;;;;;;;7.60;7.20;;;20.50;99.90;;;;;;4980751;28;20201;-77
2023/06/29 01:55:00;;;;;;;6.30;5.73;;;20.60;99.90;;;;;;4975552;28;20523;-75
2023/06/29 01:57:26;;;;;;;7.93;7.40;;;20.50;99.90;;;;;;4976269;28;20299;-76
2023/06/29 01:59:52;;;;;;;8.67;7.87;;;20.50;99.90;;;;;;4977110;28;20609;-76
2023/06/29 02:02:17;;;;;;;7.97;7.47;;;20.50;99.90;;;;;;4958452;28;20198;-76
2023/06/29 02:04:43;;;;;;;8.00;7.27;;;20.50;99.90;;;;;;4956611;28;20225;-76
2023/06/29 02:07:08;;;;;;;7.10;6.70;;;20.50;99.90;;;;;;4955987;28;20194;-76
2023/06/29 02:09:34;;;;;;;7.57;6.73;;;20.50;99.90;;;;;;4953646;28;20208;-76
2023/06/29 02:11:59;;;;;;;7.63;6.90;;;20.50;99.90;;;;;;4953858;28;20260;-77
2023/06/29 02:14:25;;;;;;;7.60;6.97;;;20.30;99.90;;;;;;4956137;28;20755;-75
2023/06/29 02:16:51;;;;;;;7.67;7.07;;;20.40;99.90;;;;;;4979432;28;20185;-76
2023/06/29 02:19:19;;;;;;;7.63;7.13;;;20.50;99.90;;;;;;4972611;28;20197;-76
2023/06/29 02:21:45;;;;;;;7.73;7.10;;;20.60;99.90;;;;;;4971684;28;20448;-76
2023/06/29 02:24:11;;;;;;;7.33;6.80;;;20.60;99.90;;;;;;4969249;28;20452;-76
2023/06/29 02:26:36;;;;;;;7.80;7.07;;;20.60;99.90;;;;;;4974447;28;20186;-76
2023/06/29 02:29:02;;;;;;;7.03;6.73;;;20.60;99.90;;;;;;4973816;28;20193;-76
2023/06/29 02:31:27;;;;;;;7.53;7.03;;;20.50;99.90;;;;;;4976293;28;20229;-76
2023/06/29 02:33:54;;;;;;;7.30;6.70;;;20.50;99.90;;;;;;4974476;28;20599;-76
2023/06/29 02:36:21;;;;;;;8.33;7.53;;;20.50;99.90;;;;;;4975099;28;20216;-76
2023/06/29 02:38:47;;;;;;;7.90;7.20;;;20.50;99.90;;;;;;4977096;28;20491;-76
2023/06/29 02:41:12;;;;;;;8.57;7.77;;;20.50;99.90;;;;;;4979850;28;20955;-76
2023/06/29 02:43:38;;;;;;;7.63;7.23;;;20.50;99.90;;;;;;4975812;28;20444;-75
2023/06/29 02:46:03;;;;;;;8.30;7.73;;;20.50;99.90;;;;;;4980328;28;20674;-76
2023/06/29 02:48:29;;;;;;;8.13;7.40;;;20.40;99.90;;;;;;4973276;28;20195;-76
2023/06/29 02:50:55;;;;;;;8.40;7.70;;;20.40;99.90;;;;;;4966316;28;20186;-76
2023/06/29 02:53:20;;;;;;;8.97;8.00;;;20.40;99.90;;;;;;4977827;28;20218;-76
2023/06/29 02:55:46;;;;;;;8.00;7.40;;;20.40;99.90;;;;;;4974395;28;20274;-76
2023/06/29 02:58:11;;;;;;;8.80;7.63;;;20.40;99.90;;;;;;4951946;28;20209;-76
2023/06/29 03:00:37;;;;;;;8.13;7.53;;;20.30;99.90;;;;;;4978411;28;20197;-76
2023/06/29 03:03:02;;;;;;;7.33;6.83;;;20.40;99.90;;;;;;4976044;28;21299;-75
2023/06/29 03:05:28;;;;;;;8.10;7.50;;;20.40;99.90;;;;;;4979250;28;20461;-76
2023/06/29 03:07:54;;;;;;;8.83;8.00;;;20.40;99.90;;;;;;4975447;28;20189;-76
2023/06/29 03:10:19;;;;;;;8.57;8.00;;;20.40;99.90;;;;;;4973237;28;20607;-76
2023/06/29 03:12:45;;;;;;;8.10;7.37;;;20.50;99.90;;;;;;4957928;28;20197;-76
2023/06/29 03:15:10;;;;;;;7.97;7.40;;;20.50;99.90;;;;;;4978509;28;20323;-77
2023/06/29 03:17:36;;;;;;;8.10;7.50;;;20.50;99.90;;;;;;4976884;28;20275;-76
2023/06/29 03:20:03;;;;;;;9.10;8.17;;;20.40;99.90;;;;;;4973177;28;20193;-76
2023/06/29 03:22:29;;;;;;;8.00;7.30;;;20.40;99.90;;;;;;4976910;28;20448;-76
2023/06/29 03:24:54;;;;;;;7.73;7.03;;;20.50;99.90;;;;;;4974599;28;20454;-76
2023/06/29 03:27:20;;;;;;;8.57;7.77;;;20.50;99.90;;;;;;4977672;28;20936;-76
2023/06/29 03:29:51;;;;;;;8.13;7.23;;;20.50;99.90;;;;;;4973431;28;20217;-76
2023/06/29 03:32:16;;;;;;;8.40;7.70;;;20.50;99.90;;;;;;4974447;28;20190;-76
2023/06/29 03:34:42;;;;;;;7.77;7.17;;;20.50;99.90;;;;;;4975270;28;20822;-76
2023/06/29 03:37:07;;;;;;;8.23;7.43;;;20.50;99.90;;;;;;4963216;28;20220;-75
2023/06/29 03:39:33;;;;;;;7.93;7.37;;;20.60;99.90;;;;;;4977903;28;20197;-75
2023/06/29 03:41:58;;;;;;;8.30;7.67;;;20.60;99.90;;;;;;4965934;28;20193;-76
2023/06/29 03:44:24;;;;;;;10.00;7.90;;;20.70;99.90;;;;;;4977544;28;20225;-75
2023/06/29 03:46:51;;;;;;;7.90;7.20;;;20.70;99.90;;;;;;4983215;28;20192;-77
2023/06/29 03:49:17;;;;;;;9.50;7.43;;;20.80;99.90;;;;;;4977226;28;20765;-77
2023/06/29 03:51:42;;;;;;;8.10;7.60;;;20.80;99.90;;;;;;4975540;28;20465;-75
2023/06/29 03:54:08;;;;;;;7.70;7.07;;;20.80;99.90;;;;;;4977204;28;20861;-77
2023/06/29 03:56:34;;;;;;;8.10;7.60;;;20.80;99.90;;;;;;4981200;28;20667;-77
2023/06/29 03:58:59;;;;;;;8.23;7.63;;;20.80;99.90;;;;;;4969809;28;20250;-76
2023/06/29 04:01:25;;;;;;;7.63;7.03;;;20.80;99.90;;;;;;4969330;28;20285;-75
2023/06/29 04:03:50;;;;;;;8.00;7.30;;;20.80;99.90;;;;;;4955329;28;20753;-76
2023/06/29 04:06:16;;;;;;;8.07;6.47;;;20.90;99.90;;;;;;4960785;28;20193;-76
2023/06/29 04:08:42;;;;;;;7.10;6.50;;;21.00;99.90;;;;;;4957572;28;20202;-76
2023/06/29 04:11:09;;;;;;;7.20;6.80;;;21.00;99.90;;;;;;4959383;28;20202;-76
2023/06/29 04:13:35;;;;;;;7.03;6.47;;;21.10;99.90;;;;;;4960406;28;20650;-76
2023/06/29 04:16:00;;;;;;;7.90;7.20;;;21.10;99.90;;;;;;4964923;28;20517;-76
2023/06/29 04:18:26;;;;;;;7.90;7.30;;;21.10;99.90;;;;;;4960907;28;20449;-76
2023/06/29 04:20:53;;;;;;;8.17;7.57;;;21.20;99.90;;;;;;4966858;28;20933;-77
2023/06/29 04:23:18;;;;;;;8.17;7.37;;;21.20;99.90;;;;;;4945032;28;20244;-76
2023/06/29 04:25:44;;;;;;;8.90;8.17;;;21.10;99.90;;;;;;4954377;28;20956;-76
2023/06/29 04:28:11;;;;;;;8.93;7.80;;;21.10;99.90;;;;;;4958860;28;20197;-77
2023/06/29 04:30:42;;;;;;;9.53;8.60;;;21.10;99.90;;;;;;4961015;28;20920;-77
2023/06/29 04:33:11;;;;;;;9.70;7.40;;;21.00;99.90;;;;;;4960793;28;20841;-76
2023/06/29 04:35:40;;;;;;;8.97;8.13;;;21.00;99.90;;;;;;4963310;28;20428;-77
2023/06/29 04:38:07;;;;;;;9.20;8.50;;;21.00;99.90;;;;;;4973484;28;20538;-76
2023/06/29 04:40:33;;;;;;;10.17;9.17;;;21.00;99.90;;;;;;4959509;28;20453;-77
2023/06/29 04:42:58;;;;;;;9.33;8.63;;;21.10;99.90;;;;;;4956121;28;20503;-75
2023/06/29 04:45:24;;;;;;;8.80;8.20;;;21.10;99.90;;;;;;4956354;28;20456;-77
2023/06/29 04:47:50;;;;;;;9.00;8.27;;;21.20;99.90;;;;;;4955065;28;20180;-76
2023/06/29 04:50:24;;;;;;;8.70;8.00;;;21.20;99.90;;;;;;4952583;28;20285;-76
2023/06/29 04:52:51;;;;;;;9.57;8.67;;;21.20;99.90;;;;;;4979046;28;20482;-76
2023/06/29 04:55:17;;;;;;;9.70;8.93;;;21.20;99.90;;;;;;4973843;28;20441;-75
2023/06/29 04:57:43;;;;;;;10.53;9.40;;;21.20;99.90;;;;;;4978062;28;21182;-76
2023/06/29 05:00:11;;;;;;;11.77;8.87;;;21.20;99.90;;;;;;4970238;28;20448;-76
2023/06/29 05:02:36;;;;;;;8.53;7.93;;;21.30;99.90;;;;;;4958267;28;20194;-75
2023/06/29 05:05:02;;;;;;;8.23;7.50;;;21.30;99.90;;;;;;4956285;28;20519;-76
2023/06/29 05:07:28;;;;;;;10.23;8.37;;;21.40;99.90;;;;;;4952788;28;20452;-74
2023/06/29 05:09:53;;;;;;;9.70;8.90;;;21.40;99.90;;;;;;4955934;28;20854;-76
2023/06/29 05:12:19;;;;;;;8.63;7.93;;;21.40;99.90;;;;;;4952462;28;20197;-74
2023/06/29 05:14:44;;;;;;;11.17;8.80;;;21.50;99.90;;;;;;4976014;28;20239;-76
2023/06/29 05:17:10;;;;;;;8.83;8.27;;;21.50;99.90;;;;;;4973491;28;20211;-75
2023/06/29 05:19:36;;;;;;;8.90;8.10;;;21.50;99.90;;;;;;4972996;28;20192;-75
2023/06/29 05:22:02;;;;;;;8.43;7.70;;;21.60;99.90;;;;;;4975738;28;20213;-75
2023/06/29 05:24:29;;;;;;;8.50;7.80;;;21.70;99.90;;;;;;4974981;28;20437;-74
2023/06/29 05:26:55;;;;;;;10.80;7.40;;;21.70;99.90;;;;;;4974994;28;20535;-75
2023/06/29 05:29:21;;;;;;;14.40;8.93;;;21.80;99.90;;;;;;4976730;28;21277;-75
2023/06/29 05:31:46;;;;;;;9.40;8.13;;;21.80;99.90;;;;;;4975329;28;20203;-75
2023/06/29 05:34:12;;;;;;;9.33;8.63;;;21.90;99.90;;;;;;4978977;28;20668;-75
2023/06/29 05:36:37;;;;;;;9.13;8.23;;;22.10;99.90;;;;;;4974563;28;20215;-75
2023/06/29 05:39:04;;;;;;;12.73;7.93;;;22.20;99.90;;;;;;4980320;28;20193;-75
2023/06/29 05:41:30;;;;;;;16.43;9.87;;;22.20;99.90;;;;;;4974311;28;20245;-76
2023/06/29 05:43:56;;;;;;;9.50;8.60;;;22.20;99.90;;;;;;4976233;28;20439;-76
2023/06/29 05:46:22;;;;;;;8.70;8.00;;;22.20;99.90;;;;;;4972949;28;20952;-74
2023/06/29 05:48:47;;;;;;;12.20;9.23;;;22.30;99.90;;;;;;4978531;28;20521;-77
2023/06/29 05:51:13;;;;;;;11.17;8.57;;;22.20;99.90;;;;;;4952589;28;20200;-75
2023/06/29 05:53:39;;;;;;;21.77;9.00;;;22.20;99.90;;;;;;4966606;28;20250;-75
2023/06/29 05:56:05;;;;;;;8.17;7.50;;;22.30;99.90;;;;;;4973178;28;20771;-76
2023/06/29 05:58:30;;;;;;;9.20;8.40;;;22.30;99.90;;;;;;4974767;28;20526;-76
2023/06/29 06:00:56;;;;;;;17.87;8.57;;;22.30;99.90;;;;;;4961802;28;20185;-76
2023/06/29 06:03:22;;;;;;;9.33;8.60;;;22.40;99.90;;;;;;4973969;28;20212;-79
2023/06/29 06:05:48;;;;;;;9.63;8.83;;;22.60;99.90;;;;;;4977886;28;20186;-79
2023/06/29 06:08:13;;;;;;;10.97;10.10;;;22.70;99.90;;;;;;4973154;28;21010;-79
2023/06/29 06:10:39;;;;;;;13.00;12.00;;;22.80;99.90;;;;;;4973550;28;20201;-78
2023/06/29 06:13:05;;;;;;;8.80;7.77;;;22.60;99.90;;;;;;4975925;28;20205;-78
2023/06/29 06:15:31;;;;;;;8.40;7.80;;;22.80;99.90;;;;;;4947205;28;20440;-79
2023/06/29 06:17:56;;;;;;;9.70;8.70;;;22.80;99.90;;;;;;4958416;28;20570;-80
2023/06/29 06:20:22;;;;;;;11.03;9.60;;;22.70;99.90;;;;;;4975317;28;20193;-79
2023/06/29 06:22:48;;;;;;;9.30;8.50;;;22.90;99.90;;;;;;4970529;28;20201;-80
2023/06/29 06:25:17;;;;;;;13.10;9.00;;;22.90;99.90;;;;;;4974117;28;20449;-80
2023/06/29 06:27:43;;;;;;;12.70;8.37;;;23.00;99.90;;;;;;4979392;28;20189;-79
2023/06/29 06:30:09;;;;;;;44.17;10.07;;;23.10;99.90;;;;;;4973339;28;21122;-79
2023/06/29 06:32:38;;;;;;;19.87;9.70;;;22.90;99.90;;;;;;4972786;28;20464;-77
2023/06/29 06:35:05;;;;;;;15.13;8.50;;;22.90;99.90;;;;;;4973211;28;20435;-78
2023/06/29 06:37:31;;;;;;;17.47;7.70;;;23.00;99.90;;;;;;4977449;28;20443;-78
2023/06/29 06:39:57;;;;;;;7.70;7.30;;;23.30;99.90;;;;;;4972968;28;20456;-76
2023/06/29 06:42:22;;;;;;;8.83;8.20;;;23.60;99.90;;;;;;4977200;28;20244;-77
2023/06/29 06:44:52;;;;;;;8.50;8.00;;;23.50;99.90;;;;;;4959414;28;20205;-77
2023/06/29 06:47:18;;;;;;;8.50;7.90;;;23.60;99.90;;;;;;4978437;28;20204;-75
2023/06/29 06:49:45;;;;;;;8.90;7.57;;;23.40;99.90;;;;;;4976946;28;20539;-77
2023/06/29 06:52:11;;;;;;;12.83;8.50;;;23.40;99.90;;;;;;4977133;28;20496;-78
2023/06/29 06:54:36;;;;;;;6.93;6.30;;;23.40;99.90;;;;;;4976480;28;20568;-78
2023/06/29 06:57:02;;;;;;;7.53;7.00;;;23.40;99.90;;;;;;4973043;28;20193;-76
2023/06/29 06:59:28;;;;;;;8.27;7.20;;;23.40;99.90;;;;;;4975416;28;20814;-77
2023/06/29 07:01:54;;;;;;;7.60;7.10;;;23.30;99.90;;;;;;4979935;28;20198;-76
2023/06/29 07:04:19;;;;;;;7.20;6.77;;;23.20;99.90;;;;;;4974527;28;20480;-76
2023/06/29 07:06:46;;;;;;;7.87;7.27;;;23.20;99.90;;;;;;4978340;28;20569;-76
2023/06/29 07:09:12;;;;;;;7.27;6.83;;;23.40;99.90;;;;;;4968543;28;20202;-76
2023/06/29 07:11:38;;;;;;;7.80;6.93;;;23.50;99.90;;;;;;4974588;28;20451;-76
2023/06/29 07:14:04;;;;;;;8.00;7.50;;;23.50;99.90;;;;;;4978170;28;20205;-76
2023/06/29 07:16:30;;;;;;;6.07;5.50;;;23.60;99.90;;;;;;4981284;28;20440;-78
2023/06/29 07:19:08;;;;;;;8.17;5.83;;;23.60;99.90;;;;;;4977969;28;20466;-75
2023/06/29 07:21:34;;;;;;;6.13;5.83;;;23.50;99.90;;;;;;4979929;28;20240;-76
2023/06/29 07:23:59;;;;;;;6.60;6.17;;;23.50;99.90;;;;;;4972685;28;20493;-76
2023/06/29 07:26:26;;;;;;;6.43;6.00;;;23.70;99.90;;;;;;4973492;28;20449;-77
2023/06/29 07:28:52;;;;;;;9.53;7.00;;;23.70;99.90;;;;;;4978825;28;20268;-76
2023/06/29 07:31:17;;;;;;;7.67;6.57;;;23.80;99.90;;;;;;4974151;28;21122;-76
2023/06/29 07:33:43;;;;;;;8.00;7.20;;;23.90;99.90;;;;;;4963112;28;20201;-76
2023/06/29 07:36:09;;;;;;;6.67;6.23;;;23.70;99.90;;;;;;4973808;28;20197;-76
2023/06/29 07:38:34;;;;;;;9.43;8.73;;;23.70;99.90;;;;;;4980411;28;20217;-76
2023/06/29 07:41:03;;;;;;;6.43;5.90;;;23.80;99.90;;;;;;4953309;28;20576;-77
2023/06/29 07:43:29;;;;;;;7.77;5.97;;;23.80;99.90;;;;;;4980079;28;20265;-77
2023/06/29 07:45:55;;;;;;;6.40;6.00;;;23.80;99.90;;;;;;4956441;28;20603;-79
2023/06/29 07:48:21;;;;;;;11.03;6.77;;;23.80;99.90;;;;;;4976704;28;20208;-76
2023/06/29 07:50:46;;;;;;;6.90;6.30;;;23.70;99.90;;;;;;4978761;28;20468;-77
2023/06/29 07:53:12;;;;;;;6.53;6.00;;;23.90;99.90;;;;;;4976983;28;20281;-75
2023/06/29 07:55:37;;;;;;;7.03;6.33;;;24.00;99.90;;;;;;4976380;28;20204;-76
2023/06/29 07:58:03;;;;;;;6.10;5.67;;;24.10;99.90;;;;;;4981163;28;20192;-76
2023/06/29 08:00:28;;;;;;;6.27;5.90;;;24.20;99.90;;;;;;4980203;28;20194;-75
2023/06/29 08:02:54;;;;;;;6.53;6.23;;;24.20;99.90;;;;;;4966785;28;20194;-77
2023/06/29 08:05:21;;;;;;;6.43;5.73;;;24.30;99.90;;;;;;4977214;28;20205;-74
2023/06/29 08:07:47;;;;;;;6.93;6.40;;;24.40;99.90;;;;;;4969065;28;20228;-76
2023/06/29 08:10:13;;;;;;;5.20;4.93;;;24.30;99.90;;;;;;4969337;28;20433;-75
2023/06/29 08:12:38;;;;;;;6.53;5.80;;;24.20;99.90;;;;;;4966325;28;20456;-75
2023/06/29 08:15:04;;;;;;;6.63;6.00;;;24.20;99.90;;;;;;4981347;28;20181;-76
2023/06/29 08:17:30;;;;;;;7.63;6.70;;;24.30;99.90;;;;;;4948549;28;20682;-77
2023/06/29 08:19:56;;;;;;;212.20;30.30;;;24.40;99.90;;;;;;4972215;28;20435;-77
2023/06/29 08:22:25;;;;;;;26.00;7.80;;;24.60;99.90;;;;;;4957454;28;20279;-77
2023/06/29 08:24:51;;;;;;;69.50;15.30;;;24.80;99.90;;;;;;4981233;28;20182;-77
2023/06/29 08:27:19;;;;;;;22.17;7.60;;;24.90;99.90;;;;;;4974866;28;20449;-80
2023/06/29 10:32:57;;;;;;;12.93;11.93;;;27.80;99.90;;;;;;4956728;28;20509;-95
2023/06/29 10:35:24;;;;;;;14.47;12.87;;;28.30;99.90;;;;;;4899906;29;20495;-76
2023/06/29 10:37:50;;;;;;;19.03;16.93;;;29.00;99.90;;;;;;4901914;29;20425;-77
2023/06/29 10:40:18;;;;;;;13.77;12.37;;;29.50;98.90;;;;;;4899051;29;20455;-77
2023/06/29 10:42:43;;;;;;;13.63;12.33;;;30.00;96.10;;;;;;4898811;29;20209;-76
2023/06/29 10:45:15;;;;;;;14.00;12.70;;;30.90;95.20;;;;;;4899292;29;20476;-77
2023/06/29 10:47:41;;;;;;;13.40;12.30;;;31.80;89.90;;;;;;4905803;29;20560;-77
2023/06/29 10:50:09;;;;;;;12.53;11.57;;;32.70;83.30;;;;;;4907354;29;20441;-76
2023/06/29 10:52:36;;;;;;;13.13;12.13;;;33.40;76.40;;;;;;4909585;29;20254;-75
2023/06/29 10:55:41;;;;;;;11.90;10.97;;;34.00;74.00;;;;;;4900039;29;20469;-77
2023/06/29 10:58:31;;;;;;;12.83;11.53;;;34.60;76.50;;;;;;4867561;29;20847;-78
2023/06/29 11:00:57;;;;;;;12.07;11.23;;;34.10;80.20;;;;;;4909970;29;20511;-77
2023/06/29 11:03:24;;;;;;;13.73;12.67;;;34.30;76.90;;;;;;4905994;29;20475;-76
2023/06/29 11:05:54;;;;;;;13.97;12.70;;;34.00;76.10;;;;;;4909551;29;20184;-77
2023/06/29 11:08:25;;;;;;;13.60;12.33;;;33.70;75.50;;;;;;4904803;29;20451;-76
2023/06/29 11:10:53;;;;;;;11.70;10.90;;;33.90;74.40;;;;;;4919561;29;20427;-76
2023/06/29 11:13:20;;;;;;;14.50;13.23;;;33.70;70.90;;;;;;4924223;29;20458;-76
2023/06/29 11:15:54;;;;;;;12.73;11.63;;;33.00;71.80;;;;;;4922315;29;20446;-77
2023/06/29 11:18:20;;;;;;;14.63;13.57;;;32.40;73.80;;;;;;4926747;29;20442;-77
2023/06/29 11:20:45;;;;;;;13.13;11.87;;;32.00;74.70;;;;;;4922517;29;20934;-76
2023/06/29 11:23:11;;;;;;;13.27;12.27;;;31.90;73.70;;;;;;4932401;29;20681;-76
2023/06/29 11:25:37;;;;;;;12.63;11.50;;;31.10;71.90;;;;;;4919948;29;20199;-76
2023/06/29 11:28:09;;;;;;;13.93;12.83;;;30.50;73.10;;;;;;4917552;29;20212;-81
2023/06/29 11:30:39;;;;;;;13.80;12.50;;;30.30;74.10;;;;;;4926386;29;20208;-77
2023/06/29 11:33:06;;;;;;;14.10;12.97;;;29.90;74.90;;;;;;4924545;29;20450;-77
2023/06/29 11:35:32;;;;;;;14.53;13.23;;;29.50;75.10;;;;;;4926541;29;20843;-75
2023/06/29 11:38:01;;;;;;;15.67;14.13;;;28.90;78.10;;;;;;4919652;29;20538;-76
2023/06/29 11:40:28;;;;;;;14.40;13.20;;;28.30;81.90;;;;;;4909715;29;20242;-76
2023/06/29 11:42:54;;;;;;;14.37;12.90;;;27.60;87.20;;;;;;4913288;29;20482;-76
2023/06/29 11:45:21;;;;;;;15.63;14.23;;;26.90;90.00;;;;;;4923543;29;20526;-75
2023/06/29 11:47:53;;;;;;;18.13;16.13;;;26.10;94.60;;;;;;4923605;29;20444;-76
2023/06/29 11:50:18;;;;;;;17.93;16.17;;;25.90;98.50;;;;;;4926120;29;20429;-78
2023/06/29 11:52:45;;;;;;;17.70;16.20;;;25.70;99.90;;;;;;4923649;29;20480;-77
2023/06/29 11:55:15;;;;;;;18.77;16.90;;;25.20;99.90;;;;;;4925486;29;20196;-77
2023/06/29 11:57:42;;;;;;;20.13;18.30;;;24.90;99.90;;;;;;4917002;29;21005;-77
2023/06/29 12:00:13;;;;;;;18.73;16.90;;;24.50;99.90;;;;;;4921969;29;20503;-77
2023/06/29 12:02:43;;;;;;;19.53;17.53;;;24.30;99.90;;;;;;4923816;29;20477;-77
2023/06/29 12:05:09;;;;;;;20.23;18.00;;;24.20;99.90;;;;;;4914501;29;20475;-76
2023/06/29 12:07:45;;;;;;;20.90;18.87;;;24.00;99.90;;;;;;4926933;29;20467;-76
2023/06/29 12:10:13;;;;;;;20.87;18.27;;;23.90;99.90;;;;;;4908579;29;20478;-76
2023/06/29 12:13:00;;;;;;;19.23;17.43;;;23.70;99.90;;;;;;4926669;29;20459;-76
2023/06/29 12:15:27;;;;;;;19.80;17.90;;;23.70;99.90;;;;;;4917515;29;20446;-75
2023/06/29 12:18:06;;;;;;;19.27;17.33;;;23.60;99.90;;;;;;4921887;29;20519;-75
2023/06/29 12:20:37;;;;;;;18.73;16.97;;;23.90;99.90;;;;;;4920160;29;20451;-75
2023/06/29 12:23:03;;;;;;;19.17;17.37;;;24.10;99.90;;;;;;4928341;29;20522;-75
2023/06/29 12:25:28;;;;;;;17.83;16.13;;;24.20;99.90;;;;;;4919663;29;21154;-76
2023/06/29 12:27:54;;;;;;;21.60;18.83;;;24.40;99.90;;;;;;4909421;29;20285;-76
2023/06/29 12:30:23;;;;;;;19.50;17.83;;;24.70;99.90;;;;;;4922085;29;20259;-76
2023/06/29 12:32:49;;;;;;;19.53;17.63;;;25.10;99.90;;;;;;4912291;29;20699;-76
2023/06/29 12:35:16;;;;;;;18.83;17.03;;;25.60;99.90;;;;;;4917928;29;20462;-75
2023/06/29 12:37:42;;;;;;;19.70;17.80;;;26.40;99.90;;;;;;4920681;29;20454;-76
2023/06/29 12:40:08;;;;;;;20.00;18.30;;;27.10;99.90;;;;;;4916240;29;20443;-77
2023/06/29 12:42:35;;;;;;;19.30;17.33;;;27.80;99.90;;;;;;4921827;29;20521;-77
2023/06/29 12:45:02;;;;;;;18.97;17.30;;;28.00;99.90;;;;;;4919833;29;20525;-74
2023/06/29 12:47:29;;;;;;;20.83;18.67;;;28.30;99.90;;;;;;4920288;29;20443;-78
2023/06/29 12:49:55;;;;;;;20.30;18.30;;;28.30;99.90;;;;;;4920319;29;20500;-77
2023/06/29 12:52:21;;;;;;;20.87;18.97;;;28.20;99.90;;;;;;4919120;29;20454;-76
2023/06/29 12:54:47;;;;;;;22.80;20.60;;;27.90;99.90;;;;;;4923066;29;20470;-77
2023/06/29 12:57:12;;;;;;;23.00;20.90;;;27.80;99.90;;;;;;4920125;29;20894;-76
2023/06/29 12:59:39;;;;;;;21.80;19.90;;;27.60;99.90;;;;;;4905028;29;20967;-76
2023/06/29 13:02:06;;;;;;;21.43;19.40;;;27.50;99.90;;;;;;4924574;29;20591;-76
2023/06/29 13:04:34;;;;;;;21.77;19.43;;;27.40;99.90;;;;;;4919745;29;20518;-76
2023/06/29 13:07:00;;;;;;;21.70;19.63;;;27.50;99.90;;;;;;4922248;29;20423;-76
2023/06/29 13:09:25;;;;;;;24.17;19.90;;;27.40;99.90;;;;;;4922446;29;20544;-76
2023/06/29 13:11:51;;;;;;;21.87;19.77;;;27.40;99.90;;;;;;4908507;29;20468;-76
2023/06/29 13:14:28;;;;;;;23.97;21.77;;;27.40;99.90;;;;;;4917762;29;20215;-78
2023/06/29 13:16:56;;;;;;;21.70;19.67;;;27.50;99.90;;;;;;4923454;29;20440;-75
2023/06/29 13:19:22;;;;;;;21.13;19.10;;;27.60;99.90;;;;;;4916323;29;20448;-74
2023/06/29 13:21:48;;;;;;;21.87;19.57;;;27.70;99.90;;;;;;4921146;29;20534;-75
2023/06/29 13:24:14;;;;;;;23.10;20.80;;;27.70;99.90;;;;;;4918452;29;20475;-74
2023/06/29 13:26:40;;;;;;;24.43;22.10;;;27.40;99.90;;;;;;4919462;29;21857;-75
2023/06/29 13:29:05;;;;;;;21.50;19.50;;;27.30;99.90;;;;;;4917063;29;20454;-75
2023/06/29 13:31:31;;;;;;;21.80;19.70;;;27.30;99.90;;;;;;4917736;29;20199;-75
2023/06/29 13:33:56;;;;;;;23.17;20.97;;;27.20;99.90;;;;;;4916865;29;20241;-76
2023/06/29 13:36:22;;;;;;;20.43;17.90;;;27.10;99.90;;;;;;4920659;29;20287;-76
2023/06/29 13:38:48;;;;;;;23.27;20.87;;;27.10;99.90;;;;;;4918727;29;20214;-74
2023/06/29 13:41:13;;;;;;;23.50;21.40;;;26.90;99.90;;;;;;4916514;29;20202;-76
2023/06/29 13:43:39;;;;;;;22.13;20.10;;;27.00;99.90;;;;;;4913083;29;20210;-76
2023/06/29 13:46:05;;;;;;;21.43;19.33;;;27.00;99.90;;;;;;4914913;29;20191;-74
2023/06/29 13:48:30;;;;;;;24.80;22.20;;;27.00;99.90;;;;;;4913144;29;20238;-76
2023/06/29 13:50:56;;;;;;;22.47;20.40;;;27.00;99.90;;;;;;4912309;29;20197;-77
2023/06/29 13:53:21;;;;;;;25.70;21.60;;;26.90;99.90;;;;;;4917156;29;20222;-76
2023/06/29 13:55:47;;;;;;;23.37;20.87;;;26.90;99.90;;;;;;4907391;29;20179;-77
2023/06/29 13:58:13;;;;;;;26.17;20.77;;;26.90;99.90;;;;;;4915419;29;20274;-77
2023/06/29 14:00:38;;;;;;;22.70;20.37;;;27.00;99.90;;;;;;4916551;29;20211;-74
2023/06/29 14:03:04;;;;;;;22.77;20.70;;;27.00;99.90;;;;;;4915872;29;20195;-75
2023/06/29 14:05:30;;;;;;;22.40;20.27;;;27.00;99.90;;;;;;4917246;29;20176;-75
2023/06/29 14:07:56;;;;;;;24.27;21.77;;;27.00;99.90;;;;;;4918132;29;20678;-75
2023/06/29 14:10:23;;;;;;;21.63;19.40;;;27.00;99.90;;;;;;4922391;29;20178;-75
2023/06/29 14:12:49;;;;;;;24.53;22.23;;;26.90;99.90;;;;;;4914807;29;20505;-75
2023/06/29 14:15:14;;;;;;;24.43;21.23;;;26.90;99.90;;;;;;4917932;29;21209;-74
2023/06/29 14:17:40;;;;;;;21.97;19.97;;;27.00;99.90;;;;;;4921319;29;20191;-76
2023/06/29 14:20:06;;;;;;;21.90;19.90;;;27.20;99.90;;;;;;4924328;29;20215;-76
2023/06/29 14:22:32;;;;;;;23.87;21.67;;;27.30;99.90;;;;;;4919285;29;20203;-77
2023/06/29 14:24:58;;;;;;;21.23;19.20;;;27.50;99.90;;;;;;4923284;29;21121;-77
2023/06/29 14:27:24;;;;;;;22.00;19.90;;;27.70;99.90;;;;;;4919874;29;20527;-76
2023/06/29 14:29:49;;;;;;;23.20;20.70;;;27.90;99.90;;;;;;4921243;29;20283;-76
2023/06/29 14:32:15;;;;;;;23.30;21.03;;;28.10;99.90;;;;;;4914630;29;20741;-75
2023/06/29 14:34:40;;;;;;;22.50;20.30;;;28.30;99.90;;;;;;4914996;29;20231;-75
2023/06/29 14:37:06;;;;;;;21.90;19.80;;;28.40;98.60;;;;;;4918176;29;20254;-77
2023/06/29 14:39:31;;;;;;;23.27;20.90;;;28.30;98.00;;;;;;4918793;29;20565;-76